Time;durP1;ratioP1;P1;durP2;ratioP2;P2;SDS_P1;SDS_P2;PMS_P1;PMS_P2;Temp;Humidity;BMP_temperature;BMP_pressure;BME280_temperature;BME280_humidity;BME280_pressure;Samples;Min_cycle;Max_cycle;Signal;HPM_P1;HPM_P2
2023/12/19 00:01:44;;;;;;;37.13;14.55;;;;;;;;;;5034742;28;20132;-72
2023/12/19 00:04:10;;;;;;;71.13;22.02;;;;;;;;;;5034674;28;20403;-72
2023/12/19 00:06:37;;;;;;;67.32;21.83;;;;;;;;;;5016937;28;20053;-72
2023/12/19 00:09:03;;;;;;;57.20;17.77;;;;;;;;;;5050352;28;20055;-72
2023/12/19 00:11:29;;;;;;;65.05;22.50;;;;;;;;;;5034853;28;20371;-71
2023/12/19 00:13:57;;;;;;;68.07;21.23;;;;;;;;;;5017546;28;20053;-73
2023/12/19 00:16:23;;;;;;;;;;;;;;;;;;5017573;28;20053;-74
2023/12/19 00:18:49;;;;;;;56.60;18.83;;;;;;;;;;5035172;28;19968;-73
2023/12/19 00:21:15;;;;;;;50.72;18.33;;;;;;;;;;5000584;28;20053;-71
2023/12/19 00:23:41;;;;;;;56.83;19.30;;;;;;;;;;5034512;28;20095;-71
2023/12/19 00:26:07;;;;;;;62.33;21.30;;;;;;;;;;5034204;28;20487;-73
2023/12/19 00:28:33;;;;;;;55.08;17.95;;;;;;;;;;5034574;28;20420;-72
2023/12/19 00:31:01;;;;;;;49.10;16.13;;;;;;;;;;5034468;28;20454;-70
2023/12/19 00:33:27;;;;;;;52.33;19.60;;;;;;;;;;5035027;28;20383;-72
2023/12/19 00:35:53;;;;;;;56.88;18.63;;;;;;;;;;5016353;28;20049;-71
2023/12/19 00:38:19;;;;;;;58.40;18.50;;;;;;;;;;5017671;28;20087;-74
2023/12/19 00:40:46;;;;;;;52.70;18.00;;;;;;;;;;5035008;28;20073;-72
2023/12/19 00:43:12;;;;;;;55.13;17.73;;;;;;;;;;5016785;28;20055;-72
2023/12/19 00:45:38;;;;;;;47.08;16.60;;;;;;;;;;5034164;28;20059;-72
2023/12/19 00:48:04;;;;;;;54.67;20.30;;;;;;;;;;5049409;28;20053;-73
2023/12/19 00:50:30;;;;;;;50.57;17.90;;;;;;;;;;5034435;28;20438;-71
2023/12/19 00:52:56;;;;;;;52.65;17.40;;;;;;;;;;5033951;28;20053;-72
2023/12/19 00:55:24;;;;;;;55.05;18.33;;;;;;;;;;5016564;28;20056;-71
2023/12/19 00:57:50;;;;;;;51.70;16.92;;;;;;;;;;5034130;28;20099;-71
2023/12/19 01:00:16;;;;;;;53.20;18.77;;;;;;;;;;5033962;28;20055;-74
2023/12/19 01:02:43;;;;;;;56.80;18.73;;;;;;;;;;5033841;28;20053;-72
2023/12/19 01:05:09;;;;;;;47.25;17.70;;;;;;;;;;5049224;28;20038;-72
2023/12/19 01:07:35;;;;;;;36.75;12.02;;;;;;;;;;5016507;28;20103;-72
2023/12/19 01:10:01;;;;;;;47.45;15.73;;;;;;;;;;5033854;28;20053;-73
2023/12/19 01:12:27;;;;;;;51.50;18.02;;;;;;;;;;5015447;28;20053;-71
2023/12/19 01:14:54;;;;;;;52.83;18.50;;;;;;;;;;5016599;28;20045;-71
2023/12/19 01:17:20;;;;;;;43.28;15.32;;;;;;;;;;5035289;28;20049;-71
2023/12/19 01:19:46;;;;;;;47.17;16.92;;;;;;;;;;5019239;28;20179;-71
2023/12/19 01:22:12;;;;;;;47.53;16.38;;;;;;;;;;5037365;28;20084;-68
2023/12/19 01:24:38;;;;;;;44.70;15.45;;;;;;;;;;5040898;28;20421;-72
2023/12/19 01:27:05;;;;;;;48.00;16.05;;;;;;;;;;5059925;28;20049;-70
2023/12/19 01:29:31;;;;;;;41.80;15.47;;;;;;;;;;5038682;28;20058;-73
2023/12/19 01:31:57;;;;;;;37.35;13.27;;;;;;;;;;5035044;28;20641;-73
2023/12/19 01:34:23;;;;;;;41.30;14.80;;;;;;;;;;5016484;28;20049;-72
2023/12/19 01:36:49;;;;;;;56.47;21.73;;;;;;;;;;5016071;28;20518;-72
2023/12/19 01:39:16;;;;;;;46.70;16.27;;;;;;;;;;5033339;28;20056;-71
2023/12/19 01:41:42;;;;;;;45.55;16.00;;;;;;;;;;5016673;28;20518;-71
2023/12/19 01:44:17;;;;;;;43.88;14.63;;;;;;;;;;5034025;28;20037;-73
2023/12/19 01:46:43;;;;;;;43.65;15.38;;;;;;;;;;5017757;28;20124;-70
2023/12/19 01:49:09;;;;;;;47.20;15.18;;;;;;;;;;5037345;28;20052;-71
2023/12/19 01:51:35;;;;;;;50.90;16.45;;;;;;;;;;5037444;28;20136;-71
2023/12/19 01:54:02;;;;;;;44.93;14.77;;;;;;;;;;5037568;28;20054;-72
2023/12/19 01:56:28;;;;;;;46.50;15.65;;;;;;;;;;5037870;28;20363;-71
2023/12/19 01:58:54;;;;;;;41.45;14.52;;;;;;;;;;5043434;28;20050;-70
2023/12/19 02:01:21;;;;;;;43.67;14.85;;;;;;;;;;5023129;28;20123;-71
2023/12/19 02:03:47;;;;;;;50.63;17.35;;;;;;;;;;5038271;28;20132;-71
2023/12/19 02:06:14;;;;;;;45.05;14.70;;;;;;;;;;5020986;28;20042;-72
2023/12/19 02:08:40;;;;;;;45.67;14.95;;;;;;;;;;5003969;28;20095;-71
2023/12/19 02:11:06;;;;;;;40.35;14.20;;;;;;;;;;5019940;28;20397;-71
2023/12/19 02:13:32;;;;;;;44.20;14.68;;;;;;;;;;5037153;28;20053;-72
2023/12/19 02:15:58;;;;;;;43.78;15.18;;;;;;;;;;5019623;28;20085;-72
2023/12/19 02:18:24;;;;;;;40.35;14.00;;;;;;;;;;5019660;28;20049;-71
2023/12/19 02:20:51;;;;;;;45.00;14.88;;;;;;;;;;5019383;28;20049;-70
2023/12/19 02:23:17;;;;;;;43.25;14.00;;;;;;;;;;5037052;28;20046;-70
2023/12/19 02:25:43;;;;;;;46.65;16.17;;;;;;;;;;5037592;28;20089;-71
2023/12/19 02:28:09;;;;;;;48.25;15.05;;;;;;;;;;5003284;28;20402;-70
2023/12/19 02:30:36;;;;;;;44.28;14.52;;;;;;;;;;5002772;28;20087;-71
2023/12/19 02:33:02;;;;;;;45.17;15.57;;;;;;;;;;5036877;28;20041;-71
2023/12/19 02:35:28;;;;;;;47.80;15.43;;;;;;;;;;5036960;28;20045;-71
2023/12/19 02:37:54;;;;;;;40.28;13.68;;;;;;;;;;5019221;28;20773;-70
2023/12/19 02:40:20;;;;;;;37.03;12.85;;;;;;;;;;5036834;28;20060;-71
2023/12/19 02:42:47;;;;;;;45.85;14.25;;;;;;;;;;5037353;28;20176;-71
2023/12/19 02:45:13;;;;;;;37.83;12.35;;;;;;;;;;5037441;28;20045;-72
2023/12/19 02:47:39;;;;;;;23.35;9.68;;;;;;;;;;5023339;28;20080;-71
2023/12/19 02:50:07;;;;;;;43.10;13.65;;;;;;;;;;5016773;28;20049;-71
2023/12/19 02:52:33;;;;;;;39.70;13.98;;;;;;;;;;5038633;28;20053;-71
2023/12/19 02:54:59;;;;;;;40.53;12.88;;;;;;;;;;5018828;28;20041;-70
2023/12/19 02:57:25;;;;;;;44.75;14.00;;;;;;;;;;5036390;28;20375;-71
2023/12/19 02:59:51;;;;;;;40.28;13.35;;;;;;;;;;5001912;28;20065;-71
2023/12/19 03:02:17;;;;;;;46.80;16.10;;;;;;;;;;5035335;28;20467;-71
2023/12/19 03:04:43;;;;;;;44.60;14.57;;;;;;;;;;5037035;28;20096;-70
2023/12/19 03:07:10;;;;;;;35.50;13.25;;;;;;;;;;5018639;28;20053;-71
2023/12/19 03:09:36;;;;;;;42.58;13.50;;;;;;;;;;5036209;28;20053;-71
2023/12/19 03:12:08;;;;;;;39.95;14.15;;;;;;;;;;5018399;28;20058;-72
2023/12/19 03:14:35;;;;;;;37.58;12.23;;;;;;;;;;5035975;28;20055;-72
2023/12/19 03:17:02;;;;;;;38.78;12.63;;;;;;;;;;5035006;28;20053;-72
2023/12/19 03:19:28;;;;;;;34.28;11.38;;;;;;;;;;5018666;28;20372;-70
2023/12/19 03:21:54;;;;;;;34.55;12.48;;;;;;;;;;5018743;28;20045;-72
2023/12/19 03:24:21;;;;;;;32.53;12.30;;;;;;;;;;5036181;28;20045;-73
2023/12/19 03:26:47;;;;;;;35.65;12.82;;;;;;;;;;5036015;28;20132;-72
2023/12/19 03:29:13;;;;;;;38.17;12.27;;;;;;;;;;5035862;28;20049;-72
2023/12/19 03:31:39;;;;;;;27.50;10.18;;;;;;;;;;5018127;28;20057;-70
2023/12/19 03:34:05;;;;;;;35.38;13.85;;;;;;;;;;5035858;28;20046;-72
2023/12/19 03:36:31;;;;;;;34.40;12.82;;;;;;;;;;5036016;28;20045;-71
2023/12/19 03:38:57;;;;;;;34.05;11.90;;;;;;;;;;5035898;28;20049;-71
2023/12/19 03:41:23;;;;;;;35.00;12.45;;;;;;;;;;5035405;28;20053;-76
2023/12/19 03:43:49;;;;;;;34.60;11.70;;;;;;;;;;5001326;28;20414;-71
2023/12/19 03:46:16;;;;;;;33.28;11.80;;;;;;;;;;5035125;28;20522;-72
2023/12/19 03:48:44;;;;;;;38.08;12.82;;;;;;;;;;5018022;28;20486;-71
2023/12/19 03:51:11;;;;;;;41.47;12.00;;;;;;;;;;5020901;28;20485;-71
2023/12/19 03:53:37;;;;;;;43.57;15.23;;;;;;;;;;5041823;28;20076;-72
2023/12/19 03:56:03;;;;;;;37.87;11.70;;;;;;;;;;5022561;28;20045;-71
2023/12/19 03:58:29;;;;;;;38.25;11.35;;;;;;;;;;5020107;28;20123;-72
2023/12/19 04:00:56;;;;;;;36.53;12.90;;;;;;;;;;5045472;28;20060;-72
2023/12/19 04:03:22;;;;;;;33.42;12.07;;;;;;;;;;5051379;28;20045;-72
2023/12/19 04:05:49;;;;;;;19.42;7.43;;;;;;;;;;5036979;28;20057;-70
2023/12/19 04:08:15;;;;;;;38.13;11.95;;;;;;;;;;5018663;28;20494;-71
2023/12/19 04:10:41;;;;;;;40.08;12.82;;;;;;;;;;5016828;28;20073;-71
2023/12/19 04:13:07;;;;;;;36.10;11.18;;;;;;;;;;5017502;28;20446;-72
2023/12/19 04:15:33;;;;;;;31.65;11.10;;;;;;;;;;5035017;28;20132;-72
2023/12/19 04:18:00;;;;;;;33.80;11.73;;;;;;;;;;5034923;28;20049;-70
2023/12/19 04:20:26;;;;;;;35.23;12.50;;;;;;;;;;5035211;28;20140;-70
2023/12/19 04:22:53;;;;;;;32.85;11.15;;;;;;;;;;5035159;28;20319;-73
2023/12/19 04:25:19;;;;;;;;;;;;;;;;;;5033583;28;20513;-71
2023/12/19 04:27:45;;;;;;;28.75;10.50;;;;;;;;;;5034644;28;19921;-72
2023/12/19 04:30:11;;;;;;;33.70;11.02;;;;;;;;;;5017315;28;20363;-71
2023/12/19 04:32:37;;;;;;;35.67;10.70;;;;;;;;;;5016805;28;20046;-72
2023/12/19 04:35:04;;;;;;;35.63;11.93;;;;;;;;;;5034532;28;20129;-72
2023/12/19 04:37:30;;;;;;;32.78;12.23;;;;;;;;;;5035247;28;20052;-71
2023/12/19 04:39:57;;;;;;;32.15;11.52;;;;;;;;;;5034644;28;20056;-72
2023/12/19 04:42:23;;;;;;;34.38;11.30;;;;;;;;;;5035185;28;20106;-71
2023/12/19 04:44:49;;;;;;;35.13;11.80;;;;;;;;;;5034521;28;20098;-71
2023/12/19 04:47:16;;;;;;;37.72;12.48;;;;;;;;;;5016896;28;20045;-71
2023/12/19 04:49:43;;;;;;;40.38;13.45;;;;;;;;;;5034450;28;20050;-71
2023/12/19 04:52:09;;;;;;;33.47;11.48;;;;;;;;;;5034842;28;20053;-72
2023/12/19 04:54:35;;;;;;;40.85;13.93;;;;;;;;;;5034133;28;20041;-72
2023/12/19 04:57:02;;;;;;;36.35;12.05;;;;;;;;;;5016990;28;20049;-72
2023/12/19 04:59:28;;;;;;;31.65;10.77;;;;;;;;;;5016507;28;20517;-71
2023/12/19 05:01:54;;;;;;;43.50;13.30;;;;;;;;;;5033777;28;20137;-74
2023/12/19 05:04:20;;;;;;;34.97;11.68;;;;;;;;;;5033839;28;20041;-72
2023/12/19 05:06:46;;;;;;;32.92;11.23;;;;;;;;;;4999746;28;20132;-72
2023/12/19 05:09:12;;;;;;;28.45;9.27;;;;;;;;;;5033974;28;20442;-72
2023/12/19 05:11:38;;;;;;;29.67;10.40;;;;;;;;;;5034417;28;20136;-72
2023/12/19 05:14:04;;;;;;;27.88;9.52;;;;;;;;;;5019564;28;20072;-73
2023/12/19 05:16:30;;;;;;;28.63;10.45;;;;;;;;;;5022768;28;20135;-71
2023/12/19 05:18:57;;;;;;;30.92;10.10;;;;;;;;;;5034214;28;20504;-74
2023/12/19 05:21:23;;;;;;;27.98;9.98;;;;;;;;;;5033496;28;20503;-73
2023/12/19 05:23:49;;;;;;;26.45;9.43;;;;;;;;;;5033512;28;20144;-71
2023/12/19 05:26:15;;;;;;;24.88;9.05;;;;;;;;;;5033979;28;20049;-72
2023/12/19 05:28:41;;;;;;;29.88;9.50;;;;;;;;;;5032396;28;20478;-72
2023/12/19 05:31:09;;;;;;;27.75;10.00;;;;;;;;;;5033719;28;20060;-72
2023/12/19 05:33:35;;;;;;;23.38;8.80;;;;;;;;;;5033452;28;20065;-73
2023/12/19 05:36:01;;;;;;;24.73;8.67;;;;;;;;;;5034215;28;20145;-72
2023/12/19 05:38:28;;;;;;;25.40;8.35;;;;;;;;;;5034139;28;20049;-72
2023/12/19 05:40:57;;;;;;;29.37;8.57;;;;;;;;;;5016910;28;20085;-73
2023/12/19 05:43:23;;;;;;;26.58;9.38;;;;;;;;;;5049033;28;20049;-72
2023/12/19 05:45:50;;;;;;;23.58;8.35;;;;;;;;;;5016283;28;20124;-72
2023/12/19 05:48:16;;;;;;;27.30;8.98;;;;;;;;;;5016410;28;20045;-73
2023/12/19 05:50:42;;;;;;;27.13;9.32;;;;;;;;;;5034390;28;20049;-74
2023/12/19 05:53:09;;;;;;;22.20;7.68;;;;;;;;;;5016800;28;20085;-70
2023/12/19 05:55:35;;;;;;;22.33;8.45;;;;;;;;;;5033775;28;20080;-72
2023/12/19 05:58:01;;;;;;;22.08;8.50;;;;;;;;;;5033494;28;20057;-71
2023/12/19 06:00:28;;;;;;;23.92;8.18;;;;;;;;;;5033584;28;20049;-72
2023/12/19 06:02:54;;;;;;;18.52;7.00;;;;;;;;;;5049284;28;20388;-71
2023/12/19 06:05:20;;;;;;;24.10;9.33;;;;;;;;;;5033422;28;20128;-71
2023/12/19 06:07:46;;;;;;;24.92;7.90;;;;;;;;;;5033086;28;20159;-72
2023/12/19 06:10:13;;;;;;;24.77;8.13;;;;;;;;;;5033240;28;20057;-73
2023/12/19 06:12:39;;;;;;;26.00;8.80;;;;;;;;;;5015459;28;20061;-73
2023/12/19 06:15:08;;;;;;;21.52;7.75;;;;;;;;;;5034505;28;20053;-73
2023/12/19 06:17:35;;;;;;;15.90;5.22;;;;;;;;;;5021819;28;20055;-72
2023/12/19 06:20:02;;;;;;;21.05;6.82;;;;;;;;;;5044108;28;20064;-73
2023/12/19 06:22:29;;;;;;;19.50;7.20;;;;;;;;;;5021088;28;20492;-73
2023/12/19 06:24:55;;;;;;;25.17;8.38;;;;;;;;;;5038788;28;20060;-72
2023/12/19 06:27:21;;;;;;;13.80;5.03;;;;;;;;;;5048321;28;20048;-69
2023/12/19 06:29:47;;;;;;;21.90;7.00;;;;;;;;;;5038139;28;20058;-73
2023/12/19 06:32:17;;;;;;;21.55;7.20;;;;;;;;;;5032947;28;20136;-72
2023/12/19 06:34:43;;;;;;;19.60;6.95;;;;;;;;;;5036538;28;20073;-70
2023/12/19 06:37:09;;;;;;;17.85;6.70;;;;;;;;;;5019730;28;20057;-72
2023/12/19 06:39:36;;;;;;;17.13;6.43;;;;;;;;;;5036567;28;20041;-73
2023/12/19 06:42:05;;;;;;;18.85;6.18;;;;;;;;;;5036375;28;20080;-73
2023/12/19 06:44:31;;;;;;;21.55;6.75;;;;;;;;;;5018767;28;20529;-73
2023/12/19 06:46:58;;;;;;;17.07;5.97;;;;;;;;;;5018849;28;20111;-74
2023/12/19 06:49:27;;;;;;;17.63;7.13;;;;;;;;;;5036059;28;20055;-72
2023/12/19 06:51:53;;;;;;;18.75;6.10;;;;;;;;;;5036660;28;20148;-72
2023/12/19 06:54:19;;;;;;;19.58;6.88;;;;;;;;;;5035992;28;20355;-72
2023/12/19 06:56:45;;;;;;;17.80;6.28;;;;;;;;;;5018439;28;20052;-71
2023/12/19 06:59:11;;;;;;;17.75;5.70;;;;;;;;;;5036323;28;20041;-73
2023/12/19 07:01:37;;;;;;;16.08;6.28;;;;;;;;;;5051400;28;20430;-72
2023/12/19 07:04:04;;;;;;;13.93;4.75;;;;;;;;;;5035682;28;20348;-71
2023/12/19 07:06:30;;;;;;;14.98;5.60;;;;;;;;;;5051058;28;20498;-72
2023/12/19 07:08:56;;;;;;;13.80;5.05;;;;;;;;;;5036139;28;20132;-71
2023/12/19 07:11:22;;;;;;;13.93;5.38;;;;;;;;;;5018261;28;20096;-72
2023/12/19 07:13:48;;;;;;;15.07;4.50;;;;;;;;;;5017923;28;20057;-71
2023/12/19 07:16:17;;;;;;;13.45;5.35;;;;;;;;;;5035765;28;20061;-72
2023/12/19 07:18:43;;;;;;;13.40;4.93;;;;;;;;;;5018299;28;20164;-72
2023/12/19 07:21:22;;;;;;;13.77;4.30;;;;;;;;;;5035359;28;20462;-70
2023/12/19 07:23:54;;;;;;;16.88;6.72;;;;;;;;;;5017663;28;20057;-71
2023/12/19 07:26:24;;;;;;;13.15;4.97;;;;;;;;;;5035663;28;20128;-72
2023/12/19 07:28:51;;;;;;;12.20;4.35;;;;;;;;;;5001534;28;20045;-71
2023/12/19 07:31:24;;;;;;;14.00;5.20;;;;;;;;;;5017400;28;20045;-73
2023/12/19 07:33:52;;;;;;;14.63;5.10;;;;;;;;;;5037480;28;20044;-73
2023/12/19 07:36:18;;;;;;;12.70;3.97;;;;;;;;;;5005601;28;20104;-72
2023/12/19 07:38:44;;;;;;;13.02;5.20;;;;;;;;;;5018198;28;20053;-73
2023/12/19 07:41:10;;;;;;;13.70;5.13;;;;;;;;;;5035037;28;20057;-69
2023/12/19 07:43:36;;;;;;;13.25;4.53;;;;;;;;;;5035046;28;20052;-73
2023/12/19 07:46:06;;;;;;;10.63;4.10;;;;;;;;;;5035432;28;20049;-72
2023/12/19 07:48:32;;;;;;;10.07;3.75;;;;;;;;;;5017716;28;20049;-73
2023/12/19 07:50:58;;;;;;;12.88;4.63;;;;;;;;;;5018200;28;20041;-73
2023/12/19 07:53:28;;;;;;;14.27;4.65;;;;;;;;;;5034960;28;20495;-72
2023/12/19 07:55:54;;;;;;;11.15;4.18;;;;;;;;;;5034906;28;20045;-74
2023/12/19 07:58:20;;;;;;;15.23;5.20;;;;;;;;;;5035401;28;20056;-72
2023/12/19 08:00:48;;;;;;;10.77;4.18;;;;;;;;;;5017871;28;20340;-72
2023/12/19 08:03:15;;;;;;;12.23;4.35;;;;;;;;;;5034829;28;20399;-72
2023/12/19 08:05:50;;;;;;;12.52;4.05;;;;;;;;;;5017713;28;20352;-71
2023/12/19 08:08:20;;;;;;;14.25;5.38;;;;;;;;;;5035283;28;20378;-72
2023/12/19 08:10:46;;;;;;;10.98;3.45;;;;;;;;;;5034656;28;20154;-71
2023/12/19 08:13:12;;;;;;;11.50;3.83;;;;;;;;;;5017031;28;20140;-73
2023/12/19 08:15:40;;;;;;;13.45;4.47;;;;;;;;;;5035045;28;20263;-72
2023/12/19 08:18:06;;;;;;;12.05;4.35;;;;;;;;;;5016805;28;20050;-73
2023/12/19 08:20:33;;;;;;;11.55;4.55;;;;;;;;;;5034427;28;20049;-71
2023/12/19 08:23:00;;;;;;;16.08;4.93;;;;;;;;;;5034157;28;20498;-72
2023/12/19 08:25:26;;;;;;;15.27;4.97;;;;;;;;;;5017489;28;20088;-74
2023/12/19 08:27:52;;;;;;;12.80;4.88;;;;;;;;;;5016643;28;20490;-71
2023/12/19 08:30:18;;;;;;;14.13;4.72;;;;;;;;;;5050256;28;20045;-72
2023/12/19 08:32:44;;;;;;;12.68;4.75;;;;;;;;;;5016261;28;20120;-72
2023/12/19 08:35:10;;;;;;;11.73;4.82;;;;;;;;;;5034271;28;20081;-73
2023/12/19 08:37:36;;;;;;;15.20;5.15;;;;;;;;;;5016764;28;20069;-74
2023/12/19 08:40:03;;;;;;;14.60;5.38;;;;;;;;;;5034308;28;20049;-72
2023/12/19 08:42:29;;;;;;;;;;;;;;;;;;5017833;28;20045;-71
2023/12/19 08:44:56;;;;;;;14.30;4.50;;;;;;;;;;5024204;28;19974;-71
2023/12/19 08:47:24;;;;;;;13.75;5.55;;;;;;;;;;5041105;28;20053;-73
2023/12/19 08:49:53;;;;;;;14.93;5.20;;;;;;;;;;5005402;28;20096;-72
2023/12/19 08:52:23;;;;;;;16.98;5.57;;;;;;;;;;5035268;28;20045;-72
2023/12/19 08:54:51;;;;;;;16.65;5.60;;;;;;;;;;5017016;28;20445;-71
2023/12/19 08:57:17;;;;;;;15.23;5.28;;;;;;;;;;5033143;28;20049;-73
2023/12/19 08:59:43;;;;;;;16.45;5.65;;;;;;;;;;5033772;28;20081;-73
2023/12/19 09:02:10;;;;;;;17.75;6.20;;;;;;;;;;5016356;28;20479;-73
2023/12/19 09:04:36;;;;;;;16.33;6.45;;;;;;;;;;5016700;28;20489;-73
2023/12/19 09:07:03;;;;;;;17.27;5.97;;;;;;;;;;5016140;28;20049;-72
2023/12/19 09:09:29;;;;;;;16.90;5.68;;;;;;;;;;5033666;28;20490;-73
2023/12/19 09:11:55;;;;;;;18.20;6.32;;;;;;;;;;5033316;28;20092;-72
2023/12/19 09:14:22;;;;;;;19.50;6.43;;;;;;;;;;5015770;28;20119;-72
2023/12/19 09:16:49;;;;;;;19.80;6.82;;;;;;;;;;5016726;28;20060;-73
2023/12/19 09:19:16;;;;;;;17.30;6.50;;;;;;;;;;5033715;28;20064;-74
2023/12/19 09:21:43;;;;;;;19.80;7.13;;;;;;;;;;5033662;28;20103;-72
2023/12/19 09:24:09;;;;;;;17.48;6.35;;;;;;;;;;5034631;28;20364;-80
2023/12/19 09:26:38;;;;;;;18.80;6.80;;;;;;;;;;5016931;28;20053;-73
2023/12/19 09:29:06;;;;;;;18.27;6.43;;;;;;;;;;5033714;28;20072;-73
2023/12/19 09:31:32;;;;;;;17.17;6.30;;;;;;;;;;5033995;28;20049;-72
2023/12/19 09:33:58;;;;;;;16.67;6.38;;;;;;;;;;5033931;28;20211;-71
2023/12/19 09:36:24;;;;;;;20.65;7.25;;;;;;;;;;5033567;28;20402;-72
2023/12/19 09:38:51;;;;;;;19.70;6.72;;;;;;;;;;5016148;28;20072;-73
2023/12/19 09:41:18;;;;;;;16.77;6.72;;;;;;;;;;5034216;28;20052;-73
2023/12/19 09:43:44;;;;;;;21.08;7.13;;;;;;;;;;5034275;28;20050;-73
2023/12/19 09:46:13;;;;;;;20.02;7.00;;;;;;;;;;4999650;28;20088;-73
2023/12/19 09:48:41;;;;;;;23.67;7.80;;;;;;;;;;5034185;28;20075;-74
2023/12/19 09:51:09;;;;;;;25.77;7.95;;;;;;;;;;5000539;28;20057;-74
2023/12/19 09:53:35;;;;;;;24.00;8.48;;;;;;;;;;5022621;28;20537;-72
2023/12/19 09:56:02;;;;;;;18.60;7.15;;;;;;;;;;5039332;28;20104;-74
2023/12/19 09:58:29;;;;;;;24.35;7.82;;;;;;;;;;5033926;28;20112;-74
2023/12/19 10:00:58;;;;;;;24.83;8.32;;;;;;;;;;5034005;28;20136;-73
2023/12/19 10:03:24;;;;;;;22.90;8.40;;;;;;;;;;5048993;28;20052;-73
2023/12/19 10:05:50;;;;;;;25.15;8.15;;;;;;;;;;5033153;28;20367;-73
2023/12/19 10:08:17;;;;;;;24.38;9.07;;;;;;;;;;5034649;28;20398;-73
2023/12/19 10:10:53;;;;;;;25.67;8.73;;;;;;;;;;5037833;28;20076;-73
2023/12/19 10:13:47;;;;;;;21.63;8.27;;;;;;;;;;5037150;28;20426;-72
2023/12/19 10:16:17;;;;;;;23.55;8.55;;;;;;;;;;5036301;28;20053;-73
2023/12/19 10:18:44;;;;;;;22.17;8.55;;;;;;;;;;5037762;28;20399;-72
2023/12/19 10:21:11;;;;;;;25.20;8.32;;;;;;;;;;5037134;28;20390;-73
2023/12/19 10:23:38;;;;;;;26.00;8.32;;;;;;;;;;5037098;28;20376;-74
2023/12/19 10:26:04;;;;;;;25.70;8.67;;;;;;;;;;5037411;28;20107;-73
2023/12/19 10:28:32;;;;;;;21.70;8.80;;;;;;;;;;5037611;28;20049;-74
2023/12/19 10:31:07;;;;;;;24.48;9.10;;;;;;;;;;5037915;28;20050;-73
2023/12/19 10:33:40;;;;;;;20.38;8.40;;;;;;;;;;5036881;28;20052;-74
2023/12/19 10:36:06;;;;;;;24.08;8.65;;;;;;;;;;5037580;28;20095;-74
2023/12/19 10:38:45;;;;;;;23.05;8.50;;;;;;;;;;5036704;28;20056;-74
2023/12/19 10:41:17;;;;;;;20.30;7.85;;;;;;;;;;5019582;28;20395;-73
2023/12/19 10:43:43;;;;;;;22.80;7.97;;;;;;;;;;5036592;28;20057;-73
2023/12/19 10:46:09;;;;;;;19.17;8.30;;;;;;;;;;5019354;28;20109;-73
2023/12/19 10:48:36;;;;;;;21.30;8.88;;;;;;;;;;5036551;28;20277;-75
2023/12/19 10:51:03;;;;;;;18.30;7.68;;;;;;;;;;5052413;28;20042;-73
2023/12/19 10:53:29;;;;;;;21.83;8.55;;;;;;;;;;5002331;28;20049;-74
2023/12/19 10:55:59;;;;;;;20.92;8.43;;;;;;;;;;5036447;28;20049;-73
2023/12/19 10:58:25;;;;;;;20.17;7.35;;;;;;;;;;5019019;28;20048;-73
2023/12/19 11:00:53;;;;;;;21.40;8.98;;;;;;;;;;5003809;28;20049;-74
2023/12/19 11:03:34;;;;;;;19.73;8.95;;;;;;;;;;5041243;28;20060;-73
2023/12/19 11:06:06;;;;;;;18.48;7.38;;;;;;;;;;5042460;28;20096;-73
2023/12/19 11:08:32;;;;;;;18.75;8.02;;;;;;;;;;5037147;28;20041;-74
2023/12/19 11:11:05;;;;;;;20.50;8.27;;;;;;;;;;5037034;28;20056;-73
2023/12/19 11:13:33;;;;;;;20.52;8.63;;;;;;;;;;5016342;28;20129;-74
2023/12/19 11:16:22;;;;;;;18.65;8.63;;;;;;;;;;5022523;28;20136;-72
2023/12/19 11:19:05;;;;;;;20.25;8.88;;;;;;;;;;5018353;28;20049;-73
2023/12/19 11:21:31;;;;;;;17.27;7.82;;;;;;;;;;5016309;28;20050;-74
2023/12/19 11:24:08;;;;;;;18.27;8.45;;;;;;;;;;5016280;28;20053;-73
2023/12/19 11:27:13;;;;;;;21.27;8.55;;;;;;;;;;5014890;28;20073;-73
2023/12/19 11:29:45;;;;;;;17.60;7.60;;;;;;;;;;5013618;28;20408;-74
2023/12/19 11:32:29;;;;;;;19.80;8.18;;;;;;;;;;4998251;28;20522;-73
2023/12/19 11:34:55;;;;;;;21.00;8.77;;;;;;;;;;5015023;28;20057;-72
2023/12/19 11:37:23;;;;;;;21.30;7.68;;;;;;;;;;5015019;28;20050;-73
2023/12/19 11:39:49;;;;;;;17.23;7.90;;;;;;;;;;5014624;28;20053;-73
2023/12/19 11:42:34;;;;;;;17.17;7.45;;;;;;;;;;5015783;28;20046;-73
2023/12/19 11:45:00;;;;;;;17.23;8.43;;;;;;;;;;5015650;28;20084;-74
2023/12/19 11:47:29;;;;;;;17.98;8.25;;;;;;;;;;5014799;28;20050;-73
2023/12/19 11:49:55;;;;;;;16.50;8.30;;;;;;;;;;5014610;28;20058;-73
2023/12/19 11:52:37;;;;;;;17.90;7.72;;;;;;;;;;5015679;28;20061;-74
2023/12/19 11:55:05;;;;;;;16.23;7.63;;;;;;;;;;5015503;28;20042;-74
2023/12/19 11:57:32;;;;;;;19.02;7.60;;;;;;;;;;5015677;28;20085;-73
2023/12/19 11:59:58;;;;;;;19.90;7.60;;;;;;;;;;5015546;28;20053;-73
2023/12/19 12:02:30;;;;;;;16.95;8.43;;;;;;;;;;5014674;28;20046;-73
2023/12/19 12:05:09;;;;;;;16.48;8.15;;;;;;;;;;5015911;28;20050;-75
2023/12/19 12:07:42;;;;;;;14.23;7.63;;;;;;;;;;5015791;28;20052;-72
2023/12/19 12:10:09;;;;;;;18.70;7.78;;;;;;;;;;5014531;28;20038;-75
2023/12/19 12:12:36;;;;;;;16.10;7.28;;;;;;;;;;5023626;28;20053;-74
2023/12/19 12:15:14;;;;;;;13.88;6.95;;;;;;;;;;5046084;28;20136;-73
2023/12/19 12:17:42;;;;;;;17.73;8.00;;;;;;;;;;5002017;28;20080;-75
2023/12/19 12:20:09;;;;;;;16.83;7.32;;;;;;;;;;5033975;28;20059;-74
2023/12/19 12:22:35;;;;;;;14.10;6.30;;;;;;;;;;5017203;28;20045;-75
2023/12/19 12:25:01;;;;;;;15.80;6.28;;;;;;;;;;5034554;28;20056;-73
2023/12/19 12:27:27;;;;;;;15.90;7.20;;;;;;;;;;5034868;28;20386;-74
2023/12/19 12:29:54;;;;;;;14.43;6.32;;;;;;;;;;5035133;28;20378;-75
2023/12/19 12:32:20;;;;;;;15.75;6.25;;;;;;;;;;5033439;28;20042;-75
2023/12/19 12:34:47;;;;;;;;;;;;;;;;;;5035346;28;20045;-74
2023/12/19 12:37:19;;;;;;;13.75;6.35;;;;;;;;;;5034290;28;20333;-74
2023/12/19 12:39:45;;;;;;;11.73;5.80;;;;;;;;;;5001328;28;20049;-75
2023/12/19 12:42:15;;;;;;;12.43;5.80;;;;;;;;;;5034994;28;20048;-74
2023/12/19 12:44:41;;;;;;;12.82;7.38;;;;;;;;;;5016830;28;20041;-72
2023/12/19 12:47:08;;;;;;;13.35;6.18;;;;;;;;;;5034358;28;20505;-74
2023/12/19 12:49:35;;;;;;;12.13;5.85;;;;;;;;;;5035061;28;20096;-74
2023/12/19 12:52:01;;;;;;;13.10;6.97;;;;;;;;;;5034468;28;20107;-73
2023/12/19 12:54:28;;;;;;;16.17;6.90;;;;;;;;;;5034366;28;20403;-74
2023/12/19 12:56:54;;;;;;;;;;;;;;;;;;5034666;28;20120;-74
2023/12/19 12:59:22;;;;;;;13.20;5.93;;;;;;;;;;5034508;28;20067;-74
2023/12/19 13:01:49;;;;;;;14.70;6.68;;;;;;;;;;5034034;28;20045;-74
2023/12/19 13:04:17;;;;;;;15.13;6.57;;;;;;;;;;5016499;28;20045;-73
2023/12/19 13:06:46;;;;;;;17.50;6.97;;;;;;;;;;5016615;28;20127;-73
2023/12/19 13:09:13;;;;;;;15.10;6.85;;;;;;;;;;5016284;28;20052;-73
2023/12/19 13:11:47;;;;;;;17.02;6.60;;;;;;;;;;5033695;28;20497;-73
2023/12/19 13:14:14;;;;;;;16.40;7.47;;;;;;;;;;5034582;28;20544;-73
2023/12/19 13:16:41;;;;;;;;;;;;;;;;;;5034361;28;20056;-73
2023/12/19 13:19:07;;;;;;;14.20;6.68;;;;;;;;;;5033953;28;19928;-72
2023/12/19 13:21:33;;;;;;;13.38;6.78;;;;;;;;;;5035528;28;20394;-73
2023/12/19 13:24:00;;;;;;;14.07;6.63;;;;;;;;;;5041965;28;20049;-72
2023/12/19 13:26:26;;;;;;;17.30;6.60;;;;;;;;;;5035481;28;20296;-73
2023/12/19 13:28:52;;;;;;;15.63;6.55;;;;;;;;;;5034409;28;20053;-74
2023/12/19 13:31:19;;;;;;;14.82;6.22;;;;;;;;;;5033801;28;20103;-72
2023/12/19 13:33:46;;;;;;;13.48;5.95;;;;;;;;;;5034035;28;20060;-73
2023/12/19 13:36:16;;;;;;;12.30;5.65;;;;;;;;;;5033635;28;20440;-74
2023/12/19 13:38:45;;;;;;;11.27;5.25;;;;;;;;;;5033545;28;20052;-74
2023/12/19 13:41:17;;;;;;;12.40;5.47;;;;;;;;;;5035424;28;20052;-73
2023/12/19 13:43:44;;;;;;;11.80;5.25;;;;;;;;;;5024258;28;20050;-74
2023/12/19 13:46:11;;;;;;;;;;;;;;;;;;5024567;28;20398;-73
2023/12/19 13:48:37;;;;;;;10.93;4.67;;;;;;;;;;5004171;28;19928;-74
2023/12/19 13:51:03;;;;;;;13.48;4.93;;;;;;;;;;5037490;28;20449;-74
2023/12/19 13:53:30;;;;;;;11.55;5.10;;;;;;;;;;5020136;28;20052;-74
2023/12/19 13:55:56;;;;;;;12.45;5.45;;;;;;;;;;5037183;28;20049;-74
2023/12/19 13:58:22;;;;;;;10.07;5.03;;;;;;;;;;5019927;28;20478;-74
2023/12/19 14:00:51;;;;;;;14.30;5.43;;;;;;;;;;5037023;28;20433;-74
2023/12/19 14:03:17;;;;;;;11.48;4.93;;;;;;;;;;5037723;28;20049;-74
2023/12/19 14:05:44;;;;;;;11.63;5.18;;;;;;;;;;5019478;28;20166;-73
2023/12/19 14:08:11;;;;;;;10.48;4.57;;;;;;;;;;5020136;28;20049;-73
2023/12/19 14:10:37;;;;;;;9.23;4.75;;;;;;;;;;5036049;28;20041;-73
2023/12/19 14:13:04;;;;;;;11.07;5.03;;;;;;;;;;5036991;28;20057;-73
2023/12/19 14:15:30;;;;;;;10.50;4.70;;;;;;;;;;5037146;28;20135;-73
2023/12/19 14:17:56;;;;;;;9.63;4.45;;;;;;;;;;5037054;28;20053;-73
2023/12/19 14:20:22;;;;;;;11.30;5.00;;;;;;;;;;5037125;28;20056;-73
2023/12/19 14:22:48;;;;;;;12.63;5.32;;;;;;;;;;5036954;28;20075;-72
2023/12/19 14:25:15;;;;;;;12.63;4.82;;;;;;;;;;5036998;28;20045;-73
2023/12/19 14:27:41;;;;;;;10.38;4.50;;;;;;;;;;5037278;28;20123;-73
2023/12/19 14:30:08;;;;;;;10.13;4.60;;;;;;;;;;5037579;28;20046;-74